Pagina principale
METAR-TAF:

METAR-TAF

Aeroporti :

Aeroporto Internazionale di Sarajevo

Sarajevo, Bosnia-Erzegovina

latitudine: 43-49N, longitudine: 018-20E, altezza: 511 m

Osservazione

Il bollettino è stato emesso 14 minuti fa, alle 20:30 UTC
Vento 6 kt da ovest
Temperature 0°C
Umidità 93%
Pressione 1014 hPa
Visibilità: 7000 m
Cielo coperto ad un'altezza di 1400 ft

METAR: LQSA 182030Z 28006KT 7000 OVC014 M00/M01 Q1014 NOSIG

Ora: 21:44 (20:44 UTC)

Previsione

Il bollettino è stato emesso 3 ore e 44 minuti fa, alle 17:00 UTC
Previsione valida dal 18 alle 18 UTC al 19 alle 18 UTC
Vento 7 kt da ovest/nord-ovest
Visibilità 10 km o più
Nuvoloso ad un'altezza di 3000 ft
Probabilità 30% :
Temporaneamente
dal 18 alle 18 UTC al 19 alle 05 UTC
Visibilità: 2500 m
Nuvoloso ad un'altezza di 500 ft
Nuvoloso ad un'altezza di 1300 ft
neve debole, foschia

TAF: LQSA 181700Z 1818/1918 30007KT 9999 BKN030 TX07/1913Z TNM01/1906Z PROB30 TEMPO 1818/1905 2500 -SN BR BKN005 BKN013

Osservazioni e previsioni meteorologiche di più di 4000 aeroporti (messaggi METAR e TAF).

Le stazioni disponibili sono rappresentate dai dischi gialli e rossi sulla carta.

Puntare il mouse per vedere il nome della stazione.

Clicca sopra per visualizzare le osservazioni e previsioni meteorologiche.

Per cambiare la mappa : fare clic sui pulsanti verdi con una croce nera per ingrandire, il pulsante verde con un trattino per diminuire, o sulla freccia verde per le mappe adiacenti.


METAR-TAF: